Time;durP1;ratioP1;P1;durP2;ratioP2;P2;SDS_P1;SDS_P2;PMS_P1;PMS_P2;Temp;Humidity;BMP_temperature;BMP_pressure;BME280_temperature;BME280_humidity;BME280_pressure;Samples;Min_cycle;Max_cycle;Signal;HPM_P1;HPM_P2
2022/09/30 00:01:09;;;;;;;10.73;7.45;;;12.00;96.50;;;;;;5054216;28;20466;-87
2022/09/30 00:03:37;;;;;;;9.18;7.03;;;11.90;96.40;;;;;;5054490;28;20025;-87
2022/09/30 00:06:06;;;;;;;9.57;7.63;;;11.90;96.50;;;;;;5054478;28;20044;-87
2022/09/30 00:08:31;;;;;;;9.38;6.90;;;11.90;96.60;;;;;;5054160;28;20053;-87
2022/09/30 00:11:06;;;;;;;9.95;7.40;;;11.90;96.70;;;;;;5054322;28;20033;-87
2022/09/30 00:13:33;;;;;;;9.57;7.05;;;11.80;96.80;;;;;;5053940;28;20028;-88
2022/09/30 00:15:59;;;;;;;9.82;7.28;;;11.80;96.80;;;;;;5054189;28;20112;-87
2022/09/30 00:18:28;;;;;;;9.65;7.03;;;11.70;96.90;;;;;;5054117;28;20056;-89
2022/09/30 00:20:54;;;;;;;9.38;6.35;;;11.70;97.10;;;;;;5038069;28;20021;-88
2022/09/30 00:23:21;;;;;;;9.80;6.07;;;11.70;97.00;;;;;;5037257;28;20086;-87
2022/09/30 00:25:47;;;;;;;8.65;6.22;;;11.60;97.10;;;;;;5055237;28;20060;-87
2022/09/30 00:28:14;;;;;;;7.38;5.20;;;11.60;97.20;;;;;;5054808;28;20028;-88
2022/09/30 00:30:39;;;;;;;6.80;4.90;;;11.60;97.30;;;;;;5037456;28;20057;-87
2022/09/30 00:33:06;;;;;;;7.30;5.68;;;11.50;97.30;;;;;;5055156;28;20094;-87
2022/09/30 00:35:31;;;;;;;7.70;5.25;;;11.50;97.30;;;;;;5053466;28;20056;-87
2022/09/30 00:37:58;;;;;;;6.65;4.88;;;11.50;97.20;;;;;;5055201;28;20346;-88
2022/09/30 00:40:26;;;;;;;7.07;4.95;;;11.40;97.20;;;;;;5037461;28;20353;-87
2022/09/30 00:42:52;;;;;;;7.13;4.70;;;11.40;97.20;;;;;;5053799;28;20025;-88
2022/09/30 00:45:18;;;;;;;7.60;5.22;;;11.40;97.40;;;;;;5037567;28;20033;-88
2022/09/30 00:47:59;;;;;;;7.30;4.70;;;11.30;97.40;;;;;;5037380;28;20024;-87
2022/09/30 00:50:36;;;;;;;5.88;4.68;;;11.30;97.40;;;;;;5053812;28;20025;-87
2022/09/30 00:53:19;;;;;;;6.25;4.65;;;11.30;97.50;;;;;;5053646;28;20048;-88
2022/09/30 00:55:58;;;;;;;5.47;4.22;;;11.20;97.60;;;;;;5053249;28;20090;-87
2022/09/30 00:58:38;;;;;;;6.13;4.97;;;11.20;97.60;;;;;;5053788;28;20020;-87
2022/09/30 01:01:04;;;;;;;5.60;4.55;;;11.20;97.60;;;;;;5054529;28;20029;-88
2022/09/30 01:03:40;;;;;;;6.38;4.45;;;11.20;97.50;;;;;;5053384;28;20063;-90
2022/09/30 01:06:06;;;;;;;7.03;5.00;;;11.10;97.50;;;;;;5054707;28;20029;-87
2022/09/30 01:08:36;;;;;;;6.03;4.00;;;11.10;97.50;;;;;;5036673;28;20078;-88
2022/09/30 01:11:01;;;;;;;6.35;4.40;;;11.10;97.50;;;;;;5053776;28;20040;-88
2022/09/30 01:13:30;;;;;;;6.43;4.30;;;11.00;97.80;;;;;;5038019;28;20029;-88
2022/09/30 01:16:08;;;;;;;6.28;4.75;;;11.00;97.70;;;;;;5055659;28;20532;-87
2022/09/30 01:18:59;;;;;;;5.43;4.30;;;11.00;97.90;;;;;;5054373;28;20032;-88
2022/09/30 01:21:51;;;;;;;6.43;4.60;;;11.00;97.70;;;;;;5053447;28;20080;-88
2022/09/30 01:24:43;;;;;;;7.65;5.60;;;11.00;97.70;;;;;;5053505;28;20029;-87
2022/09/30 01:27:36;;;;;;;8.50;5.20;;;10.90;97.70;;;;;;5052987;28;20029;-87
2022/09/30 01:30:44;;;;;;;6.18;4.38;;;10.90;97.70;;;;;;5053426;28;20025;-87
2022/09/30 01:33:18;;;;;;;10.20;4.18;;;10.80;97.80;;;;;;5021026;28;20489;-87
2022/09/30 01:36:09;;;;;;;5.43;3.45;;;10.80;97.80;;;;;;5053016;28;20099;-88
2022/09/30 01:38:57;;;;;;;4.75;3.20;;;10.70;97.80;;;;;;5054016;28;20144;-88
2022/09/30 01:41:46;;;;;;;4.00;2.72;;;10.70;97.80;;;;;;5057439;28;20025;-88
2022/09/30 01:44:12;;;;;;;3.75;3.08;;;10.70;97.80;;;;;;5057302;28;20074;-88
2022/09/30 01:46:43;;;;;;;3.75;2.78;;;10.60;97.90;;;;;;5058244;28;20465;-88
2022/09/30 01:49:38;;;;;;;4.70;3.50;;;10.60;98.10;;;;;;5057213;28;20020;-88
2022/09/30 01:52:23;;;;;;;5.65;4.00;;;10.60;98.10;;;;;;5057305;28;20116;-88
2022/09/30 01:55:17;;;;;;;9.02;5.15;;;10.60;98.30;;;;;;5056973;28;20070;-87
2022/09/30 01:58:12;;;;;;;9.93;5.43;;;10.50;98.40;;;;;;5059817;28;20029;-88
2022/09/30 02:00:42;;;;;;;8.85;5.10;;;10.50;98.50;;;;;;5065252;28;20029;-88
2022/09/30 02:03:15;;;;;;;9.02;4.00;;;10.50;98.40;;;;;;5060391;28;20556;-88
2022/09/30 02:06:06;;;;;;;5.90;4.15;;;10.50;98.40;;;;;;5057059;28;20031;-88
2022/09/30 02:08:38;;;;;;;4.85;3.95;;;10.40;98.00;;;;;;5056842;28;20084;-87
2022/09/30 02:11:25;;;;;;;5.40;4.20;;;10.40;98.00;;;;;;5056922;28;20032;-88
2022/09/30 02:13:58;;;;;;;6.07;4.22;;;10.30;98.10;;;;;;5056323;28;20025;-88
2022/09/30 02:16:30;;;;;;;6.95;4.40;;;10.30;98.20;;;;;;5056841;28;20122;-88
2022/09/30 02:19:25;;;;;;;5.43;4.03;;;10.30;98.30;;;;;;5057921;28;20057;-87
2022/09/30 02:22:06;;;;;;;6.45;4.15;;;10.30;98.30;;;;;;5056454;28;20053;-88
2022/09/30 02:24:38;;;;;;;5.90;4.13;;;10.20;98.30;;;;;;5057570;28;20025;-88
2022/09/30 02:27:10;;;;;;;6.72;4.47;;;10.20;98.30;;;;;;5056516;28;20029;-87
2022/09/30 02:29:41;;;;;;;7.05;4.38;;;10.20;98.40;;;;;;5056511;28;20460;-87
2022/09/30 02:32:23;;;;;;;6.80;4.55;;;10.20;98.50;;;;;;5039744;28;20036;-88
2022/09/30 02:34:58;;;;;;;8.77;5.18;;;10.10;98.60;;;;;;5057068;28;20029;-87
2022/09/30 02:37:38;;;;;;;9.23;6.38;;;10.10;98.80;;;;;;5056119;28;20025;-87
2022/09/30 02:40:13;;;;;;;8.93;5.97;;;10.10;98.90;;;;;;5055890;28;20055;-88
2022/09/30 02:42:40;;;;;;;9.15;6.22;;;10.10;99.10;;;;;;5056220;28;20017;-88
2022/09/30 02:45:15;;;;;;;11.27;6.40;;;10.10;99.20;;;;;;5039597;28;20380;-88
2022/09/30 02:47:50;;;;;;;8.60;6.20;;;10.10;99.30;;;;;;5056344;28;20017;-91
2022/09/30 02:50:27;;;;;;;10.13;6.28;;;10.10;99.40;;;;;;5064732;28;20017;-88
2022/09/30 02:53:21;;;;;;;10.23;6.70;;;10.10;99.50;;;;;;5068254;28;20025;-88
2022/09/30 02:56:14;;;;;;;11.20;6.78;;;10.10;99.50;;;;;;5069237;28;20032;-88
2022/09/30 02:58:42;;;;;;;9.25;6.00;;;10.10;99.60;;;;;;5066704;28;20075;-88
2022/09/30 03:01:12;;;;;;;9.55;5.80;;;10.10;99.70;;;;;;5049631;28;20051;-88
2022/09/30 03:03:49;;;;;;;8.40;5.70;;;10.00;99.70;;;;;;5062732;28;20035;-88
2022/09/30 03:06:15;;;;;;;8.93;5.00;;;10.00;99.70;;;;;;5056432;28;20135;-88
2022/09/30 03:08:41;;;;;;;7.10;4.57;;;10.00;99.80;;;;;;5056078;28;20025;-88
2022/09/30 03:11:15;;;;;;;10.70;4.43;;;10.00;99.80;;;;;;5055726;28;20028;-88
2022/09/30 03:14:00;;;;;;;7.15;3.80;;;10.00;99.80;;;;;;5055272;28;20032;-88
2022/09/30 03:16:56;;;;;;;6.20;3.75;;;10.00;99.80;;;;;;5056682;28;20033;-88
2022/09/30 03:19:34;;;;;;;5.75;3.70;;;10.00;99.80;;;;;;5056331;28;20033;-88
2022/09/30 03:22:19;;;;;;;7.65;4.05;;;9.90;99.70;;;;;;5055357;28;20035;-87
2022/09/30 03:24:55;;;;;;;8.15;4.55;;;9.90;99.70;;;;;;5056305;28;20064;-90
2022/09/30 03:27:59;;;;;;;10.93;4.28;;;9.90;99.80;;;;;;5055339;28;20061;-87
2022/09/30 03:30:27;;;;;;;8.02;4.90;;;9.90;99.90;;;;;;5056463;28;20017;-87
2022/09/30 03:33:05;;;;;;;8.38;4.88;;;9.90;99.90;;;;;;5055129;28;20446;-88
2022/09/30 03:35:47;;;;;;;8.23;4.00;;;9.80;99.80;;;;;;5056383;28;20036;-88
2022/09/30 03:38:22;;;;;;;7.78;4.88;;;9.80;99.90;;;;;;5055610;28;20032;-88
2022/09/30 03:40:57;;;;;;;13.18;5.22;;;9.80;99.90;;;;;;5057407;28;20025;-88
2022/09/30 03:43:31;;;;;;;7.75;4.88;;;9.80;99.90;;;;;;5057654;28;20039;-88
2022/09/30 03:46:20;;;;;;;8.45;5.13;;;9.70;99.90;;;;;;5055218;28;20076;-87
2022/09/30 03:48:49;;;;;;;13.77;6.10;;;9.70;99.90;;;;;;5055021;28;20057;-88
2022/09/30 03:51:16;;;;;;;9.88;6.15;;;9.70;99.90;;;;;;5056304;28;20021;-87
2022/09/30 03:53:45;;;;;;;12.45;6.07;;;9.70;99.90;;;;;;5038388;28;20032;-88
2022/09/30 03:56:13;;;;;;;10.80;5.72;;;9.70;99.90;;;;;;5055795;28;20036;-88
2022/09/30 03:58:43;;;;;;;10.55;5.75;;;9.70;99.90;;;;;;5038169;28;20036;-88
2022/09/30 04:01:22;;;;;;;12.80;6.35;;;9.70;99.90;;;;;;5054208;28;20378;-88
2022/09/30 04:03:51;;;;;;;9.68;5.97;;;9.70;99.90;;;;;;5054803;28;20051;-88
2022/09/30 04:06:17;;;;;;;12.43;6.05;;;9.70;99.90;;;;;;5038400;28;20025;-88
2022/09/30 04:08:43;;;;;;;11.25;6.47;;;9.70;99.90;;;;;;5054485;28;20028;-88
2022/09/30 04:11:09;;;;;;;11.40;5.47;;;9.70;99.90;;;;;;5038016;28;20021;-88
2022/09/30 04:13:35;;;;;;;10.35;5.60;;;9.70;99.90;;;;;;5038040;28;20124;-88
2022/09/30 04:16:01;;;;;;;10.90;5.32;;;9.60;99.90;;;;;;5037835;28;20061;-88
2022/09/30 04:18:26;;;;;;;8.73;5.50;;;9.60;99.90;;;;;;5055009;28;20033;-88
2022/09/30 04:20:52;;;;;;;10.23;5.90;;;9.60;99.90;;;;;;5037907;28;20025;-88
2022/09/30 04:23:18;;;;;;;8.63;5.03;;;9.60;99.90;;;;;;5054629;28;20096;-88
2022/09/30 04:25:51;;;;;;;9.70;5.20;;;9.50;99.90;;;;;;5038208;28;20025;-88
2022/09/30 04:28:17;;;;;;;9.43;5.60;;;9.50;99.90;;;;;;5054671;28;20087;-88
2022/09/30 04:30:42;;;;;;;13.68;6.05;;;9.50;99.90;;;;;;5045563;28;20037;-88
2022/09/30 04:33:08;;;;;;;9.68;5.60;;;9.50;99.90;;;;;;5043828;28;20029;-88
2022/09/30 04:35:36;;;;;;;9.98;5.57;;;9.50;99.90;;;;;;5037777;28;20098;-88
2022/09/30 04:38:05;;;;;;;8.27;4.95;;;9.40;99.90;;;;;;5037548;28;20112;-88
2022/09/30 04:40:31;;;;;;;7.72;4.95;;;9.40;99.90;;;;;;5038136;28;20465;-88
2022/09/30 04:42:57;;;;;;;11.55;5.50;;;9.40;99.90;;;;;;5037373;28;20056;-88
2022/09/30 04:45:23;;;;;;;7.75;5.18;;;9.40;99.90;;;;;;5054225;28;20037;-88
2022/09/30 04:47:49;;;;;;;9.80;5.03;;;9.40;99.90;;;;;;5054151;28;20040;-88
2022/09/30 04:50:14;;;;;;;8.48;4.93;;;9.40;99.90;;;;;;5037238;28;20370;-88
2022/09/30 04:52:43;;;;;;;9.00;5.05;;;9.30;99.90;;;;;;5037239;28;20029;-88
2022/09/30 04:55:10;;;;;;;10.52;5.28;;;9.40;99.90;;;;;;5053846;28;20035;-88
2022/09/30 04:57:36;;;;;;;8.88;4.90;;;9.30;99.90;;;;;;5054953;28;20025;-88
2022/09/30 05:00:04;;;;;;;8.73;4.70;;;9.30;99.90;;;;;;5054868;28;20028;-88
2022/09/30 05:02:30;;;;;;;12.73;5.00;;;9.30;99.90;;;;;;5036936;28;20049;-88
2022/09/30 05:04:56;;;;;;;8.98;4.20;;;9.30;99.90;;;;;;5036842;28;20067;-88
2022/09/30 05:07:21;;;;;;;7.47;4.53;;;9.30;99.90;;;;;;5037143;28;20052;-88
2022/09/30 05:09:47;;;;;;;9.68;4.60;;;9.30;99.90;;;;;;5053622;28;20025;-88
2022/09/30 05:12:14;;;;;;;5.80;3.65;;;9.20;99.90;;;;;;5053484;28;20044;-88
2022/09/30 05:14:40;;;;;;;6.60;4.20;;;9.20;99.90;;;;;;5052881;28;20084;-88
2022/09/30 05:17:06;;;;;;;7.20;3.70;;;9.20;99.90;;;;;;5036703;28;20028;-88
2022/09/30 05:19:31;;;;;;;5.22;3.70;;;9.20;99.90;;;;;;5037285;28;20025;-88
2022/09/30 05:21:57;;;;;;;6.65;3.80;;;9.10;99.90;;;;;;5036787;28;20025;-89
2022/09/30 05:24:23;;;;;;;4.78;3.40;;;9.10;99.90;;;;;;5053501;28;20075;-88
2022/09/30 05:26:49;;;;;;;5.25;3.40;;;9.10;99.90;;;;;;5054774;28;20099;-88
2022/09/30 05:29:15;;;;;;;7.55;4.10;;;9.00;99.90;;;;;;5040545;28;20033;-88
2022/09/30 05:31:41;;;;;;;7.65;3.72;;;9.00;99.90;;;;;;5066340;28;20028;-88
2022/09/30 05:34:07;;;;;;;5.90;3.75;;;9.00;99.90;;;;;;5053377;28;20055;-88
2022/09/30 05:36:33;;;;;;;6.43;4.07;;;8.90;99.90;;;;;;5053497;28;20101;-88
2022/09/30 05:39:01;;;;;;;6.97;4.18;;;8.90;99.90;;;;;;5053364;28;20104;-89
2022/09/30 05:41:27;;;;;;;7.18;4.25;;;8.90;99.90;;;;;;5036938;28;20049;-88
2022/09/30 05:43:52;;;;;;;5.70;4.03;;;8.90;99.90;;;;;;5053395;28;20061;-89
2022/09/30 05:46:19;;;;;;;5.82;3.95;;;8.80;99.90;;;;;;5036503;28;20044;-88
2022/09/30 05:48:46;;;;;;;6.13;3.75;;;8.80;99.90;;;;;;5053369;28;20029;-88
2022/09/30 05:51:11;;;;;;;4.85;2.95;;;8.70;99.90;;;;;;5036626;28;20465;-88
2022/09/30 05:53:38;;;;;;;5.45;3.67;;;8.70;99.90;;;;;;5053319;28;20044;-88
2022/09/30 05:56:05;;;;;;;6.60;3.88;;;8.70;99.90;;;;;;5052984;28;20029;-88
2022/09/30 05:58:31;;;;;;;6.10;3.65;;;8.70;99.90;;;;;;5036942;28;20045;-88
2022/09/30 06:01:01;;;;;;;6.32;4.03;;;8.60;99.90;;;;;;5053224;28;20053;-89
2022/09/30 06:03:27;;;;;;;6.87;3.77;;;8.70;99.90;;;;;;5053022;28;20041;-88
2022/09/30 06:05:56;;;;;;;5.72;3.92;;;8.60;99.90;;;;;;5037201;28;20101;-89
2022/09/30 06:08:22;;;;;;;6.72;4.22;;;8.70;99.90;;;;;;5054274;28;20055;-89
2022/09/30 06:10:48;;;;;;;6.70;3.92;;;8.70;99.90;;;;;;5036886;28;20021;-88
2022/09/30 06:13:16;;;;;;;6.50;4.18;;;8.60;99.90;;;;;;5053154;28;20036;-88
2022/09/30 06:15:42;;;;;;;6.70;4.15;;;8.70;99.90;;;;;;5036652;28;20029;-88
2022/09/30 06:18:08;;;;;;;8.05;4.03;;;8.70;99.90;;;;;;5053105;28;20108;-88
2022/09/30 06:20:35;;;;;;;6.30;3.65;;;8.70;99.90;;;;;;5038109;28;20121;-88
2022/09/30 06:23:02;;;;;;;7.63;4.55;;;8.70;99.90;;;;;;5040280;28;20025;-88
2022/09/30 06:25:28;;;;;;;7.78;4.45;;;8.70;99.90;;;;;;5064020;28;20029;-89
2022/09/30 06:27:54;;;;;;;6.78;4.47;;;8.70;99.90;;;;;;5067603;28;20032;-88
2022/09/30 06:30:20;;;;;;;5.75;3.65;;;8.70;99.90;;;;;;5049805;28;20025;-89
2022/09/30 06:32:46;;;;;;;7.78;4.55;;;8.70;99.90;;;;;;5046137;28;20033;-90
2022/09/30 06:35:12;;;;;;;8.07;5.20;;;8.70;99.90;;;;;;5048040;28;20033;-89
2022/09/30 06:37:37;;;;;;;6.82;4.30;;;8.70;99.90;;;;;;5060486;28;20017;-91
2022/09/30 06:40:04;;;;;;;6.60;4.15;;;8.70;99.90;;;;;;5057518;28;20033;-90
2022/09/30 06:42:32;;;;;;;8.07;4.20;;;8.70;99.90;;;;;;5056718;28;20052;-89
2022/09/30 06:44:58;;;;;;;7.20;3.92;;;8.70;99.90;;;;;;5056252;28;20075;-89
2022/09/30 06:47:24;;;;;;;5.82;3.83;;;8.70;99.90;;;;;;5056202;28;20029;-90
2022/09/30 06:49:52;;;;;;;5.60;3.83;;;8.70;99.90;;;;;;5056331;28;20025;-90
2022/09/30 06:52:18;;;;;;;7.47;4.05;;;8.70;99.90;;;;;;5039739;28;20124;-90
2022/09/30 06:54:45;;;;;;;6.50;4.32;;;8.70;99.90;;;;;;5056416;28;20037;-89
2022/09/30 06:57:11;;;;;;;7.65;4.55;;;8.80;99.90;;;;;;5039190;28;20500;-91
2022/09/30 06:59:37;;;;;;;6.78;4.50;;;8.80;99.90;;;;;;5046477;28;20393;-89
2022/09/30 07:02:03;;;;;;;8.43;4.43;;;8.80;99.90;;;;;;5063211;28;20156;-90
2022/09/30 07:04:29;;;;;;;7.53;4.82;;;8.80;99.90;;;;;;5057882;28;20053;-90
2022/09/30 07:06:55;;;;;;;9.00;5.30;;;8.90;99.90;;;;;;5039635;28;20508;-89
2022/09/30 07:09:20;;;;;;;9.60;6.85;;;8.90;99.90;;;;;;5056716;28;20032;-89
2022/09/30 07:11:47;;;;;;;16.30;8.38;;;8.90;99.90;;;;;;5057969;28;20057;-89
2022/09/30 07:14:13;;;;;;;16.63;9.82;;;9.00;99.90;;;;;;5061029;28;20424;-88
2022/09/30 07:16:39;;;;;;;15.32;8.20;;;9.00;99.90;;;;;;5040165;28;20044;-90
2022/09/30 07:19:06;;;;;;;14.65;9.00;;;9.00;99.90;;;;;;5056092;28;20029;-90
2022/09/30 07:21:32;;;;;;;13.45;8.95;;;9.10;99.90;;;;;;5055391;28;20056;-90
2022/09/30 07:23:58;;;;;;;14.02;8.88;;;9.10;99.90;;;;;;5039095;28;20096;-90
2022/09/30 07:26:25;;;;;;;15.55;8.20;;;9.20;99.90;;;;;;5056309;28;20461;-89
2022/09/30 07:28:51;;;;;;;11.85;7.72;;;9.20;99.90;;;;;;5039268;28;20025;-91
2022/09/30 07:31:23;;;;;;;14.90;7.57;;;9.20;99.90;;;;;;5038447;28;20052;-91
2022/09/30 07:33:51;;;;;;;14.02;9.80;;;9.30;99.90;;;;;;5055566;28;20418;-88
2022/09/30 07:36:26;;;;;;;16.98;10.57;;;9.30;99.90;;;;;;5054313;28;20032;-90
2022/09/30 07:38:52;;;;;;;21.45;11.05;;;9.40;99.90;;;;;;5055222;28;20029;-89
2022/09/30 07:41:27;;;;;;;19.38;11.93;;;9.50;99.90;;;;;;5055124;28;20021;-89
2022/09/30 07:43:59;;;;;;;17.65;11.93;;;9.50;99.90;;;;;;5055650;28;20028;-89
2022/09/30 07:46:30;;;;;;;22.15;15.32;;;9.50;99.90;;;;;;5054964;28;20025;-89
2022/09/30 07:48:59;;;;;;;;;;;9.60;99.90;;;;;;5055668;28;20021;-89
2022/09/30 07:51:31;;;;;;;22.10;13.80;;;9.60;99.90;;;;;;5055916;28;19904;-89
2022/09/30 07:54:00;;;;;;;22.05;14.32;;;9.60;99.90;;;;;;5055881;28;20027;-89
2022/09/30 07:56:27;;;;;;;22.90;15.10;;;9.60;99.90;;;;;;5054624;28;20029;-89
2022/09/30 07:58:59;;;;;;;24.17;15.60;;;9.70;99.90;;;;;;5038261;28;20045;-90
2022/09/30 08:01:26;;;;;;;22.98;16.13;;;9.80;99.90;;;;;;5054633;28;20095;-89
2022/09/30 08:03:54;;;;;;;26.55;17.52;;;9.80;99.90;;;;;;5055989;28;20025;-89
2022/09/30 08:06:20;;;;;;;27.52;17.50;;;9.90;99.90;;;;;;5054547;28;20091;-90
2022/09/30 08:08:49;;;;;;;28.50;18.27;;;9.90;99.90;;;;;;5054842;28;20079;-89
2022/09/30 08:11:14;;;;;;;27.70;18.50;;;10.00;99.90;;;;;;5038372;28;20416;-89
2022/09/30 08:13:40;;;;;;;29.58;19.42;;;10.00;99.90;;;;;;5037602;28;20040;-89
2022/09/30 08:16:06;;;;;;;27.17;18.92;;;10.10;99.90;;;;;;5054904;28;20473;-89
2022/09/30 08:18:32;;;;;;;27.23;18.77;;;10.20;99.90;;;;;;5054268;28;20108;-89
2022/09/30 08:21:03;;;;;;;26.90;19.63;;;10.30;99.90;;;;;;5037829;28;20029;-89
2022/09/30 08:23:29;;;;;;;31.77;20.80;;;10.40;99.90;;;;;;5055397;28;20040;-89
2022/09/30 08:26:08;;;;;;;30.35;21.83;;;10.40;99.90;;;;;;5054686;28;20060;-90
2022/09/30 08:28:35;;;;;;;28.70;20.20;;;10.50;99.90;;;;;;5054626;28;20029;-89
2022/09/30 08:31:10;;;;;;;27.58;18.58;;;10.60;99.90;;;;;;5054218;28;20033;-89
2022/09/30 08:33:37;;;;;;;29.65;19.17;;;10.70;99.90;;;;;;5054037;28;20025;-89
2022/09/30 08:36:14;;;;;;;28.92;19.25;;;10.70;99.90;;;;;;5054248;28;20040;-90
2022/09/30 08:38:41;;;;;;;27.10;20.15;;;10.80;99.90;;;;;;5055188;28;20059;-89
2022/09/30 08:41:22;;;;;;;28.77;18.50;;;10.90;99.90;;;;;;5054209;28;20029;-89
2022/09/30 08:43:50;;;;;;;23.63;16.92;;;11.00;99.90;;;;;;5054005;28;20025;-89
2022/09/30 08:46:16;;;;;;;22.90;15.05;;;11.10;99.90;;;;;;5053968;28;20032;-88
2022/09/30 08:49:01;;;;;;;20.27;15.27;;;11.20;99.90;;;;;;5053782;28;20029;-89
2022/09/30 08:51:44;;;;;;;24.65;18.33;;;11.30;99.90;;;;;;5053625;28;20017;-89
2022/09/30 08:54:18;;;;;;;21.33;15.77;;;11.40;99.90;;;;;;5053772;28;20076;-90
2022/09/30 08:56:45;;;;;;;23.80;16.45;;;11.50;99.90;;;;;;5053602;28;20028;-89
2022/09/30 08:59:23;;;;;;;20.70;14.45;;;11.60;99.90;;;;;;5054795;28;20118;-89
2022/09/30 09:01:52;;;;;;;23.50;17.33;;;11.70;99.90;;;;;;5053236;28;20060;-88
2022/09/30 09:04:18;;;;;;;22.25;16.00;;;11.80;99.90;;;;;;5053654;28;20029;-89
2022/09/30 09:06:59;;;;;;;21.20;16.25;;;11.90;99.90;;;;;;5053463;28;20029;-88
2022/09/30 09:09:45;;;;;;;18.30;14.27;;;12.00;99.90;;;;;;5054843;28;20107;-88
2022/09/30 09:12:38;;;;;;;18.98;13.82;;;12.10;99.90;;;;;;5054730;28;20029;-89
2022/09/30 09:15:24;;;;;;;19.63;13.15;;;12.20;99.90;;;;;;5053757;28;20036;-89
2022/09/30 09:18:12;;;;;;;16.52;12.93;;;12.30;99.90;;;;;;5053488;28;20025;-89
2022/09/30 09:20:46;;;;;;;16.52;12.30;;;12.40;99.90;;;;;;5054234;28;20529;-89
2022/09/30 09:23:13;;;;;;;21.42;15.05;;;12.50;99.90;;;;;;5053551;28;20064;-88
2022/09/30 09:25:39;;;;;;;18.83;13.95;;;12.70;99.90;;;;;;5036447;28;20032;-89
2022/09/30 09:28:21;;;;;;;20.23;15.15;;;12.80;99.90;;;;;;5038971;28;20025;-88
2022/09/30 09:30:51;;;;;;;18.25;13.45;;;13.00;99.90;;;;;;5054032;28;20013;-89
2022/09/30 09:33:28;;;;;;;18.65;12.73;;;13.10;99.90;;;;;;5053702;28;20080;-92
2022/09/30 09:36:04;;;;;;;19.67;13.38;;;13.20;99.90;;;;;;5053825;28;20033;-89
2022/09/30 09:38:39;;;;;;;18.65;13.50;;;13.30;99.90;;;;;;5053165;28;20021;-90
2022/09/30 09:41:38;;;;;;;18.50;13.32;;;13.50;99.90;;;;;;5054462;28;20029;-89
2022/09/30 09:44:09;;;;;;;14.68;12.20;;;13.60;99.90;;;;;;5053242;28;20029;-89
2022/09/30 09:46:46;;;;;;;15.27;11.80;;;13.80;99.90;;;;;;5052994;28;20021;-90
2022/09/30 09:49:12;;;;;;;14.00;10.02;;;13.90;99.90;;;;;;5053319;28;20086;-89
2022/09/30 09:51:46;;;;;;;15.77;11.25;;;14.00;99.90;;;;;;5053019;28;20025;-89
2022/09/30 09:54:14;;;;;;;14.27;11.63;;;14.20;99.90;;;;;;5060440;28;20025;-89
2022/09/30 09:56:40;;;;;;;16.08;11.43;;;14.30;99.90;;;;;;5038047;28;20066;-89
2022/09/30 09:59:12;;;;;;;15.20;10.52;;;14.40;99.90;;;;;;5038565;28;20108;-88
2022/09/30 10:01:44;;;;;;;14.32;10.93;;;14.50;99.90;;;;;;5064521;28;20504;-89
2022/09/30 10:04:23;;;;;;;14.18;11.38;;;14.70;99.90;;;;;;5066661;28;20025;-89
2022/09/30 10:06:59;;;;;;;12.70;10.20;;;14.80;99.90;;;;;;5063390;28;20025;-89
2022/09/30 10:09:26;;;;;;;14.88;10.50;;;14.90;99.90;;;;;;5064130;28;20017;-90
2022/09/30 10:12:04;;;;;;;16.08;11.05;;;15.00;99.90;;;;;;5066134;28;20032;-90
2022/09/30 10:14:35;;;;;;;14.68;10.93;;;15.10;99.90;;;;;;5060548;28;20033;-89
2022/09/30 10:17:03;;;;;;;15.15;11.93;;;15.20;99.90;;;;;;5057939;28;20025;-89
2022/09/30 10:19:32;;;;;;;14.05;10.93;;;15.40;99.90;;;;;;5040434;28;20540;-89
2022/09/30 10:22:19;;;;;;;14.60;10.20;;;15.40;99.90;;;;;;5056917;28;20029;-89
2022/09/30 10:24:47;;;;;;;11.65;9.73;;;15.50;99.90;;;;;;5056635;28;20040;-90
2022/09/30 10:27:31;;;;;;;15.40;10.55;;;15.60;99.90;;;;;;5040021;28;20127;-89
2022/09/30 10:29:57;;;;;;;12.27;8.88;;;15.70;99.90;;;;;;5057794;28;20044;-90
2022/09/30 10:32:24;;;;;;;12.02;9.43;;;15.80;99.40;;;;;;5056975;28;20033;-88
2022/09/30 10:35:19;;;;;;;14.25;9.65;;;15.90;98.50;;;;;;5039573;28;20033;-90
2022/09/30 10:37:56;;;;;;;10.90;9.10;;;16.00;98.70;;;;;;5056334;28;20053;-89
2022/09/30 10:40:27;;;;;;;15.20;8.75;;;16.10;98.90;;;;;;5056686;28;20056;-90
2022/09/30 10:42:53;;;;;;;11.80;8.90;;;16.20;97.70;;;;;;5056466;28;20021;-88
2022/09/30 10:45:37;;;;;;;13.70;9.18;;;16.30;98.20;;;;;;5056120;28;20275;-91
2022/09/30 10:48:12;;;;;;;12.50;8.98;;;16.30;97.80;;;;;;5057607;28;20025;-89
2022/09/30 10:50:38;;;;;;;12.15;8.93;;;16.40;97.80;;;;;;5056109;28;20060;-90
2022/09/30 10:53:14;;;;;;;12.40;8.30;;;16.50;97.30;;;;;;5056229;28;20033;-89
2022/09/30 10:55:44;;;;;;;12.18;8.48;;;16.60;97.60;;;;;;5056285;28;20411;-90
2022/09/30 10:58:39;;;;;;;10.57;7.67;;;16.70;97.40;;;;;;5056511;28;20088;-89
2022/09/30 11:01:04;;;;;;;9.93;7.05;;;16.80;97.50;;;;;;5041009;28;20267;-90
2022/09/30 11:03:44;;;;;;;10.48;7.63;;;16.90;95.80;;;;;;5055459;28;20060;-89
2022/09/30 11:06:13;;;;;;;14.40;8.02;;;17.00;96.00;;;;;;5056146;28;20058;-90
2022/09/30 11:09:04;;;;;;;10.85;7.20;;;17.10;96.10;;;;;;5055575;28;20029;-91
2022/09/30 11:11:44;;;;;;;9.85;7.28;;;17.20;95.60;;;;;;5054005;28;20029;-90
2022/09/30 11:14:31;;;;;;;10.82;7.80;;;17.30;94.60;;;;;;5055765;28;20044;-89
2022/09/30 11:17:08;;;;;;;9.13;6.63;;;17.40;94.50;;;;;;5055520;28;20025;-90
2022/09/30 11:20:07;;;;;;;11.48;7.07;;;17.50;94.90;;;;;;5055796;28;20469;-91
2022/09/30 11:22:45;;;;;;;9.75;6.40;;;17.50;94.10;;;;;;5055637;28;20025;-90
2022/09/30 11:25:18;;;;;;;8.65;6.20;;;17.60;94.30;;;;;;5055468;28;20021;-90
2022/09/30 11:27:57;;;;;;;10.90;6.95;;;17.70;94.40;;;;;;5055273;28;20400;-89
2022/09/30 11:30:35;;;;;;;9.32;7.10;;;17.80;93.20;;;;;;5055662;28;20112;-89
2022/09/30 11:33:16;;;;;;;9.88;6.80;;;17.90;92.60;;;;;;5055364;28;20025;-92
2022/09/30 11:36:00;;;;;;;10.07;7.43;;;17.90;93.00;;;;;;5055552;28;20163;-89
2022/09/30 11:38:49;;;;;;;11.18;8.07;;;18.00;93.30;;;;;;5055535;28;20044;-90
2022/09/30 11:41:24;;;;;;;13.57;8.10;;;18.10;92.30;;;;;;5056406;28;20064;-91
2022/09/30 11:44:14;;;;;;;11.77;8.73;;;18.20;92.00;;;;;;5055034;28;20083;-91
2022/09/30 11:46:58;;;;;;;13.10;8.15;;;18.20;92.20;;;;;;5055240;28;20029;-90
2022/09/30 11:49:32;;;;;;;10.48;7.38;;;18.30;92.30;;;;;;5055423;28;20055;-91
2022/09/30 11:52:01;;;;;;;10.85;7.70;;;18.40;90.90;;;;;;5054936;28;20021;-92
2022/09/30 11:55:00;;;;;;;12.77;8.13;;;18.40;91.40;;;;;;5054854;28;20386;-90
2022/09/30 11:57:44;;;;;;;14.90;8.57;;;18.50;91.10;;;;;;5056936;28;20044;-89
2022/09/30 12:00:14;;;;;;;11.38;7.63;;;18.50;90.40;;;;;;5053331;28;20052;-91
2022/09/30 12:02:46;;;;;;;11.73;8.05;;;18.60;89.40;;;;;;5054750;28;20055;-89
2022/09/30 12:05:33;;;;;;;9.30;6.65;;;18.60;89.80;;;;;;5055086;28;20028;-89
2022/09/30 12:08:28;;;;;;;9.52;8.05;;;18.60;88.40;;;;;;5056068;28;20108;-90
2022/09/30 12:11:05;;;;;;;13.82;8.55;;;18.60;90.40;;;;;;5054642;28;20396;-90
2022/09/30 12:13:39;;;;;;;9.52;6.45;;;18.70;90.60;;;;;;5054713;28;20025;-90
2022/09/30 12:16:15;;;;;;;9.35;6.00;;;18.70;88.70;;;;;;5055641;28;20033;-91
2022/09/30 12:18:46;;;;;;;8.68;5.18;;;18.70;88.50;;;;;;5054438;28;20017;-91
2022/09/30 12:21:18;;;;;;;;;;;18.70;89.40;;;;;;5054813;28;20082;-91
2022/09/30 12:23:47;;;;;;;8.27;5.32;;;18.70;90.00;;;;;;5054172;28;19909;-90
2022/09/30 12:26:14;;;;;;;9.00;5.15;;;18.70;89.30;;;;;;5062170;28;20036;-91
2022/09/30 12:31:38;;;;;;;7.68;4.13;;;18.80;87.20;;;;;;5055515;28;20087;-90
2022/09/30 12:34:38;;;;;;;8.45;3.70;;;18.80;88.30;;;;;;5055293;28;20091;-89
2022/09/30 12:37:29;;;;;;;7.27;3.97;;;18.80;88.50;;;;;;5055190;28;20033;-89
2022/09/30 12:40:47;;;;;;;7.07;3.90;;;18.90;88.40;;;;;;5054171;28;20267;-90
2022/09/30 12:43:53;;;;;;;5.25;3.30;;;19.00;87.00;;;;;;5037190;28;20056;-91
2022/09/30 12:46:56;;;;;;;6.40;3.10;;;19.10;87.60;;;;;;5054112;28;20021;-91
2022/09/30 12:49:25;;;;;;;4.75;2.70;;;19.20;84.50;;;;;;5054156;28;20021;-90
2022/09/30 12:52:04;;;;;;;3.83;2.53;;;19.20;85.10;;;;;;5054293;28;20071;-88
2022/09/30 12:54:55;;;;;;;4.43;2.50;;;19.10;85.10;;;;;;5053919;28;20389;-89
2022/09/30 12:57:30;;;;;;;4.47;2.40;;;19.20;85.50;;;;;;5046892;28;20095;-89
2022/09/30 13:00:00;;;;;;;2.20;1.52;;;19.20;84.50;;;;;;5053862;28;20480;-90
2022/09/30 13:02:34;;;;;;;2.70;1.98;;;19.20;83.00;;;;;;5053658;28;20033;-92
2022/09/30 13:05:28;;;;;;;4.28;2.22;;;19.20;82.10;;;;;;5053612;28;20032;-89
2022/09/30 13:08:03;;;;;;;3.45;1.67;;;19.20;84.20;;;;;;5053295;28;20535;-92
2022/09/30 13:10:43;;;;;;;2.33;1.70;;;19.20;81.60;;;;;;5053464;28;20074;-90
2022/09/30 13:13:22;;;;;;;3.95;1.80;;;19.20;83.20;;;;;;5053683;28;20033;-89
2022/09/30 13:15:49;;;;;;;3.60;1.70;;;19.20;81.80;;;;;;5054794;28;20068;-90
2022/09/30 13:18:25;;;;;;;4.75;1.80;;;19.20;82.00;;;;;;5053684;28;20017;-90
2022/09/30 13:21:03;;;;;;;2.38;1.70;;;19.20;81.00;;;;;;5053743;28;20036;-91